Time;durP1;ratioP1;P1;durP2;ratioP2;P2;SDS_P1;SDS_P2;PMS_P1;PMS_P2;Temp;Humidity;BMP_temperature;BMP_pressure;BME280_temperature;BME280_humidity;BME280_pressure;Samples;Min_cycle;Max_cycle;Signal;HPM_P1;HPM_P2
2023/03/11 00:00:15;;;;;;;2.17;1.07;;;7.20;99.90;;;;;;5086161;28;20223;-87
2023/03/11 00:02:47;;;;;;;1.03;0.80;;;7.20;99.90;;;;;;5097449;28;20654;-86
2023/03/11 00:05:23;;;;;;;0.90;0.80;;;7.10;99.90;;;;;;5089278;28;20207;-87
2023/03/11 00:07:55;;;;;;;1.23;1.00;;;7.10;99.90;;;;;;5076115;28;20245;-88
2023/03/11 00:10:28;;;;;;;2.60;1.03;;;7.00;99.90;;;;;;5068800;28;20200;-88
2023/03/11 00:12:59;;;;;;;1.50;0.90;;;7.00;99.90;;;;;;5074266;28;20350;-87
2023/03/11 00:15:31;;;;;;;1.40;1.10;;;7.00;99.90;;;;;;5077714;28;20204;-88
2023/03/11 00:18:02;;;;;;;1.23;1.00;;;7.10;99.90;;;;;;5080541;28;20208;-87
2023/03/11 00:20:36;;;;;;;1.57;1.10;;;7.00;99.90;;;;;;5073463;28;20637;-88
2023/03/11 00:23:08;;;;;;;1.73;0.83;;;7.00;99.90;;;;;;5076577;28;20265;-88
2023/03/11 00:25:40;;;;;;;1.10;1.00;;;6.90;99.90;;;;;;5068456;28;20473;-89
2023/03/11 00:28:11;;;;;;;4.40;1.07;;;6.90;99.90;;;;;;5077678;28;20204;-88
2023/03/11 00:30:43;;;;;;;1.67;0.70;;;6.90;99.90;;;;;;5078440;28;20216;-90
2023/03/11 00:33:16;;;;;;;0.70;0.70;;;6.90;99.90;;;;;;5077849;28;20212;-88
2023/03/11 00:35:48;;;;;;;1.40;1.00;;;6.80;99.90;;;;;;5072203;28;20207;-89
2023/03/11 00:38:19;;;;;;;1.90;0.80;;;6.80;99.90;;;;;;5096169;28;20254;-89
2023/03/11 00:40:51;;;;;;;1.07;0.90;;;6.80;99.90;;;;;;5084073;28;20291;-89
2023/03/11 00:43:22;;;;;;;2.40;1.00;;;6.80;99.90;;;;;;5057750;28;20356;-88
2023/03/11 00:45:53;;;;;;;1.27;1.17;;;7.00;99.90;;;;;;5077306;28;20662;-87
2023/03/11 00:48:24;;;;;;;2.37;1.00;;;6.90;99.90;;;;;;5094890;28;20203;-89
2023/03/11 00:50:57;;;;;;;2.80;1.20;;;6.90;99.90;;;;;;5088539;28;20199;-89
2023/03/11 00:53:28;;;;;;;2.17;1.40;;;6.80;99.90;;;;;;5078011;28;20208;-88
2023/03/11 00:56:00;;;;;;;2.07;0.93;;;6.80;99.90;;;;;;5094894;28;20675;-88
2023/03/11 00:58:32;;;;;;;1.80;1.20;;;6.90;99.90;;;;;;5076519;28;20211;-88
2023/03/11 01:01:07;;;;;;;2.13;1.10;;;6.80;99.90;;;;;;5085946;28;20218;-87
2023/03/11 01:03:38;;;;;;;1.30;1.03;;;6.70;99.90;;;;;;5079326;28;20202;-88
2023/03/11 01:06:12;;;;;;;2.73;1.10;;;6.80;99.90;;;;;;5084521;28;20253;-89
2023/03/11 01:08:43;;;;;;;2.70;1.20;;;6.70;99.90;;;;;;5083715;28;20281;-88
2023/03/11 01:11:14;;;;;;;1.43;1.20;;;6.70;99.90;;;;;;5092471;28;20253;-85
2023/03/11 01:13:46;;;;;;;1.40;1.30;;;6.60;99.90;;;;;;5083754;28;20237;-91
2023/03/11 01:16:17;;;;;;;1.80;1.20;;;6.60;99.90;;;;;;5081518;28;20200;-92
2023/03/11 01:18:49;;;;;;;3.97;1.70;;;6.60;99.90;;;;;;5069143;28;20199;-91
2023/03/11 01:21:21;;;;;;;2.17;1.60;;;6.60;99.90;;;;;;5092227;28;20612;-91
2023/03/11 01:23:53;;;;;;;3.67;1.40;;;6.60;99.90;;;;;;5078118;28;20263;-87
2023/03/11 01:26:24;;;;;;;2.87;1.50;;;6.60;99.90;;;;;;5097788;28;20200;-85
2023/03/11 01:28:55;;;;;;;2.40;1.33;;;6.50;99.90;;;;;;5094185;28;20191;-88
2023/03/11 01:31:27;;;;;;;2.13;1.60;;;6.40;99.90;;;;;;5086681;28;20208;-88
2023/03/11 01:33:59;;;;;;;2.53;1.47;;;6.40;99.90;;;;;;5079729;28;20230;-88
2023/03/11 01:36:32;;;;;;;1.90;1.57;;;6.30;99.90;;;;;;5076021;28;20290;-87
2023/03/11 01:39:04;;;;;;;3.57;1.67;;;6.30;99.90;;;;;;5075077;28;20269;-88
2023/03/11 01:41:35;;;;;;;2.67;1.47;;;6.30;99.90;;;;;;5075704;28;20244;-87
2023/03/11 01:44:07;;;;;;;1.20;1.10;;;6.30;99.90;;;;;;5062605;28;20203;-89
2023/03/11 01:47:01;;;;;;;3.13;1.10;;;6.30;99.90;;;;;;5073363;28;20276;-89
2023/03/11 01:49:33;;;;;;;2.00;1.30;;;6.30;99.90;;;;;;5072789;28;20207;-89
2023/03/11 01:52:09;;;;;;;2.07;1.50;;;6.30;99.90;;;;;;5068391;28;20214;-90
2023/03/11 01:54:43;;;;;;;2.07;1.50;;;6.30;99.90;;;;;;5074357;28;20203;-87
2023/03/11 01:57:15;;;;;;;2.53;1.30;;;6.20;99.90;;;;;;5067852;28;20254;-89
2023/03/11 01:59:51;;;;;;;2.90;1.50;;;6.20;99.90;;;;;;5071217;28;20577;-88
2023/03/11 02:02:27;;;;;;;2.10;1.30;;;6.20;99.90;;;;;;5067148;28;20669;-89
2023/03/11 02:05:01;;;;;;;1.57;1.47;;;6.10;99.90;;;;;;5074382;28;20207;-88
2023/03/11 02:07:35;;;;;;;2.30;1.67;;;6.10;99.90;;;;;;5074359;28;20260;-89
2023/03/11 02:10:12;;;;;;;1.93;1.30;;;6.10;99.90;;;;;;5071517;28;20241;-87
2023/03/11 02:12:44;;;;;;;1.87;1.50;;;6.10;99.90;;;;;;5074466;28;20211;-87
2023/03/11 02:15:18;;;;;;;2.50;2.07;;;6.10;99.90;;;;;;5071405;28;20215;-87
2023/03/11 02:17:49;;;;;;;1.83;1.70;;;6.10;99.90;;;;;;5071618;28;20207;-87
2023/03/11 02:20:29;;;;;;;1.83;1.60;;;6.10;99.90;;;;;;5074521;28;20302;-87
2023/03/11 02:23:03;;;;;;;1.97;1.77;;;6.00;99.90;;;;;;5072992;28;20256;-88
2023/03/11 02:25:41;;;;;;;4.70;2.03;;;6.00;99.90;;;;;;5075355;28;20218;-87
2023/03/11 02:28:20;;;;;;;3.37;1.93;;;5.90;99.90;;;;;;5071370;28;20573;-89
2023/03/11 02:30:53;;;;;;;5.23;2.40;;;5.90;99.90;;;;;;5069420;28;20207;-89
2023/03/11 02:33:28;;;;;;;2.63;2.03;;;5.90;99.90;;;;;;5073878;28;20207;-91
2023/03/11 02:35:59;;;;;;;2.43;1.93;;;5.80;99.90;;;;;;5075303;28;20683;-90
2023/03/11 02:38:30;;;;;;;2.77;2.10;;;5.80;99.90;;;;;;5075083;28;20199;-92
2023/03/11 02:41:03;;;;;;;3.30;2.70;;;5.90;99.90;;;;;;5073829;28;20292;-92
2023/03/11 02:43:41;;;;;;;2.67;2.40;;;5.80;99.90;;;;;;5054581;28;20222;-92
2023/03/11 02:46:15;;;;;;;5.13;2.63;;;5.80;99.90;;;;;;5054471;28;20716;-94
2023/03/11 02:48:46;;;;;;;4.57;3.20;;;5.80;99.90;;;;;;5070915;28;20210;-94
2023/03/11 02:51:17;;;;;;;2.83;2.40;;;5.80;99.90;;;;;;5077864;28;20245;-94
2023/03/11 02:53:51;;;;;;;4.27;2.30;;;5.80;99.90;;;;;;5081709;28;20200;-93
2023/03/11 02:56:22;;;;;;;9.40;3.00;;;5.80;99.90;;;;;;5074849;28;20204;-92
2023/03/11 02:58:56;;;;;;;4.00;2.47;;;5.80;99.90;;;;;;5073800;28;20216;-93
2023/03/11 03:01:27;;;;;;;4.47;2.57;;;5.80;99.90;;;;;;5074866;28;20231;-93
2023/03/11 03:03:59;;;;;;;4.13;2.47;;;5.80;99.90;;;;;;5074292;28;20215;-95
2023/03/11 03:06:30;;;;;;;4.33;2.63;;;5.80;99.90;;;;;;5074268;28;20558;-94
2023/03/11 03:09:02;;;;;;;2.60;2.30;;;5.80;99.90;;;;;;5073446;28;20620;-93
2023/03/11 03:11:34;;;;;;;5.00;3.10;;;5.80;99.90;;;;;;5074529;28;20215;-93
2023/03/11 03:14:07;;;;;;;4.70;3.23;;;5.80;99.90;;;;;;5056167;28;20248;-93
2023/03/11 03:16:38;;;;;;;6.70;3.50;;;5.80;99.90;;;;;;5056245;28;20357;-92
2023/03/11 03:19:09;;;;;;;6.67;4.00;;;5.80;99.90;;;;;;5067974;28;20227;-91
2023/03/11 03:21:42;;;;;;;7.87;4.30;;;5.80;99.90;;;;;;5075743;28;20239;-91
2023/03/11 03:24:13;;;;;;;5.97;3.80;;;5.80;99.90;;;;;;5075025;28;20626;-92
2023/03/11 03:26:44;;;;;;;5.27;3.20;;;5.80;99.90;;;;;;5074723;28;20324;-91
2023/03/11 03:29:17;;;;;;;8.40;3.47;;;5.80;99.90;;;;;;5074793;28;20207;-92
2023/03/11 03:31:49;;;;;;;6.70;4.33;;;5.70;99.90;;;;;;5074886;28;20211;-92
2023/03/11 03:34:20;;;;;;;7.07;4.07;;;5.80;99.90;;;;;;5087723;28;20252;-93
2023/03/11 03:36:51;;;;;;;7.37;3.83;;;5.80;99.90;;;;;;5099775;28;20199;-91
2023/03/11 03:39:22;;;;;;;3.47;2.60;;;5.80;99.90;;;;;;5095657;28;20221;-91
2023/03/11 03:41:53;;;;;;;2.97;2.20;;;5.70;99.90;;;;;;5096151;28;20280;-93
2023/03/11 03:44:27;;;;;;;5.97;1.50;;;5.70;99.90;;;;;;5080518;28;20203;-91
2023/03/11 03:46:58;;;;;;;2.70;1.23;;;5.70;99.90;;;;;;5074819;28;20264;-94
2023/03/11 03:49:29;;;;;;;1.43;0.87;;;5.80;99.90;;;;;;5078656;28;20665;-93
2023/03/11 03:52:00;;;;;;;1.40;1.10;;;5.70;99.90;;;;;;5077948;28;20261;-94
2023/03/11 03:54:32;;;;;;;2.40;1.10;;;5.70;99.90;;;;;;5081244;28;20253;-93
2023/03/11 03:57:04;;;;;;;2.80;1.33;;;5.70;99.90;;;;;;5074585;28;20211;-95
2023/03/11 03:59:37;;;;;;;1.40;0.90;;;5.70;99.90;;;;;;5106116;28;20214;-95
2023/03/11 04:02:09;;;;;;;3.13;1.37;;;5.70;99.90;;;;;;5106938;28;20677;-92
2023/03/11 04:04:41;;;;;;;1.53;0.60;;;5.60;99.90;;;;;;5073940;28;20207;-93
2023/03/11 04:07:12;;;;;;;1.70;0.83;;;5.60;99.90;;;;;;5075290;28;20203;-93
2023/03/11 04:09:45;;;;;;;0.83;0.53;;;5.60;99.90;;;;;;5102881;28;20211;-95
2023/03/11 04:12:18;;;;;;;0.90;0.40;;;5.60;99.90;;;;;;5076348;28;20204;-94
2023/03/11 04:14:51;;;;;;;3.20;0.57;;;5.60;99.90;;;;;;5075040;28;20199;-95
2023/03/11 04:17:23;;;;;;;1.03;0.70;;;5.50;99.90;;;;;;5066855;28;20203;-88
2023/03/11 04:19:54;;;;;;;0.50;0.50;;;5.50;99.90;;;;;;5070356;28;20280;-89
2023/03/11 04:22:26;;;;;;;0.60;0.47;;;5.50;99.90;;;;;;5069851;28;20231;-89
2023/03/11 04:24:58;;;;;;;2.23;0.80;;;5.50;99.90;;;;;;5071727;28;20619;-90
2023/03/11 04:27:29;;;;;;;1.80;0.80;;;5.50;99.90;;;;;;5067903;28;20207;-90
2023/03/11 04:30:04;;;;;;;0.73;0.40;;;5.50;99.90;;;;;;5071754;28;20258;-90
2023/03/11 04:32:35;;;;;;;0.80;0.60;;;5.50;99.90;;;;;;5070035;28;20212;-92
2023/03/11 04:35:08;;;;;;;1.97;1.10;;;5.50;99.90;;;;;;5070916;28;20205;-91
2023/03/11 04:37:39;;;;;;;1.57;0.70;;;5.60;99.90;;;;;;5070758;28;20255;-90
2023/03/11 04:40:13;;;;;;;2.03;0.90;;;5.60;99.90;;;;;;5073830;28;20269;-91
2023/03/11 04:42:45;;;;;;;1.53;0.70;;;5.60;99.90;;;;;;5077305;28;20693;-90
2023/03/11 04:45:19;;;;;;;1.10;0.80;;;5.60;99.90;;;;;;5079698;28;20211;-91
2023/03/11 04:47:51;;;;;;;1.97;0.80;;;5.60;99.90;;;;;;5065366;28;20700;-90
2023/03/11 04:50:23;;;;;;;1.83;0.83;;;5.60;99.90;;;;;;5060423;28;20219;-92
2023/03/11 04:52:55;;;;;;;1.10;0.70;;;5.60;99.90;;;;;;5075291;28;20295;-93
2023/03/11 04:55:26;;;;;;;0.90;0.77;;;5.60;99.90;;;;;;5078280;28;20210;-90
2023/03/11 04:57:57;;;;;;;1.47;0.73;;;5.60;99.90;;;;;;5074690;28;20216;-92
2023/03/11 05:00:32;;;;;;;1.20;0.60;;;5.50;99.90;;;;;;5074047;28;20199;-91
2023/03/11 05:03:03;;;;;;;0.83;0.60;;;5.50;99.90;;;;;;5076202;28;20247;-93
2023/03/11 05:05:35;;;;;;;1.70;0.70;;;5.60;99.90;;;;;;5083845;28;20190;-91
2023/03/11 05:08:07;;;;;;;1.13;0.60;;;5.60;99.90;;;;;;5085005;28;20241;-92
2023/03/11 05:10:40;;;;;;;0.67;0.57;;;5.60;99.90;;;;;;5092602;28;20192;-93
2023/03/11 05:13:12;;;;;;;1.50;0.50;;;5.50;99.90;;;;;;5095744;28;20199;-92
2023/03/11 05:15:47;;;;;;;2.47;0.70;;;5.50;99.90;;;;;;5081021;28;20253;-92
2023/03/11 05:18:19;;;;;;;1.23;0.70;;;5.40;99.90;;;;;;5082629;28;20203;-93
2023/03/11 05:20:52;;;;;;;0.80;0.60;;;5.40;99.90;;;;;;5082220;28;20261;-94
2023/03/11 05:23:23;;;;;;;0.83;0.60;;;5.30;99.90;;;;;;5077216;28;20300;-92
2023/03/11 05:25:55;;;;;;;1.37;0.40;;;5.30;99.90;;;;;;5077235;28;20215;-90
2023/03/11 05:28:26;;;;;;;2.43;0.80;;;5.30;99.90;;;;;;5075988;28;20312;-90
2023/03/11 05:31:00;;;;;;;2.83;0.60;;;5.20;99.90;;;;;;5075899;28;20616;-90
2023/03/11 05:33:34;;;;;;;1.00;0.90;;;5.20;99.90;;;;;;5076152;28;20272;-90
2023/03/11 05:36:08;;;;;;;1.37;0.90;;;5.20;99.90;;;;;;5081684;28;20519;-90
2023/03/11 05:38:40;;;;;;;0.70;0.70;;;5.20;99.90;;;;;;5078737;28;20211;-95
2023/03/11 05:41:11;;;;;;;2.33;0.67;;;5.20;99.90;;;;;;5082247;28;20258;-91
2023/03/11 05:43:42;;;;;;;1.27;1.00;;;5.20;99.90;;;;;;5098641;28;20235;-91
2023/03/11 05:46:16;;;;;;;1.97;0.60;;;5.20;99.90;;;;;;5091961;28;20240;-92
2023/03/11 05:48:48;;;;;;;1.27;0.90;;;5.10;99.90;;;;;;5105222;28;20211;-90
2023/03/11 05:51:20;;;;;;;1.37;1.07;;;5.10;99.90;;;;;;5093534;28;20208;-91
2023/03/11 05:53:51;;;;;;;1.20;1.00;;;5.10;99.90;;;;;;5080751;28;20212;-90
2023/03/11 05:56:24;;;;;;;1.60;1.20;;;5.10;99.90;;;;;;5087556;28;20203;-91
2023/03/11 05:58:58;;;;;;;1.77;1.27;;;5.10;99.90;;;;;;5085887;28;20199;-93
2023/03/11 06:01:33;;;;;;;1.17;1.07;;;5.10;99.90;;;;;;5076628;28;20199;-93
2023/03/11 06:04:05;;;;;;;1.57;1.20;;;5.00;99.90;;;;;;5075395;28;20234;-93
2023/03/11 06:06:38;;;;;;;2.63;1.23;;;5.00;99.90;;;;;;5110015;28;20200;-91
2023/03/11 06:09:12;;;;;;;2.03;1.43;;;5.00;99.90;;;;;;5076803;28;20215;-93
2023/03/11 06:11:43;;;;;;;1.03;1.00;;;5.00;99.90;;;;;;5077666;28;20196;-92
2023/03/11 06:14:17;;;;;;;2.80;1.40;;;5.00;99.90;;;;;;5078135;28;20631;-94
2023/03/11 06:16:52;;;;;;;2.23;1.37;;;4.90;99.90;;;;;;5083082;28;20199;-93
2023/03/11 06:19:23;;;;;;;1.73;1.40;;;5.00;99.90;;;;;;5074399;28;20210;-94
2023/03/11 06:21:55;;;;;;;3.33;1.60;;;5.00;99.90;;;;;;5074693;28;20203;-93
2023/03/11 06:24:27;;;;;;;2.10;1.90;;;4.90;99.90;;;;;;5076203;28;20218;-93
2023/03/11 06:26:59;;;;;;;3.40;2.27;;;5.00;99.90;;;;;;5077295;28;20261;-93
2023/03/11 06:29:30;;;;;;;4.30;2.20;;;5.00;99.90;;;;;;5078515;28;20995;-93
2023/03/11 06:32:06;;;;;;;2.63;2.23;;;5.00;99.90;;;;;;5074239;28;20255;-91
2023/03/11 06:34:39;;;;;;;2.43;1.60;;;5.00;99.90;;;;;;5076788;28;20556;-91
2023/03/11 06:37:10;;;;;;;1.70;1.50;;;4.90;99.90;;;;;;5073949;28;20207;-91
2023/03/11 06:39:42;;;;;;;2.13;1.60;;;4.90;99.90;;;;;;5073348;28;20292;-91
2023/03/11 06:42:13;;;;;;;1.50;1.40;;;4.90;99.90;;;;;;5055331;28;20280;-91
2023/03/11 06:44:45;;;;;;;2.07;1.40;;;4.90;99.90;;;;;;5074091;28;20221;-91
2023/03/11 06:47:18;;;;;;;1.60;1.40;;;4.90;99.90;;;;;;5073639;28;20204;-91
2023/03/11 06:49:51;;;;;;;2.10;1.27;;;4.90;99.90;;;;;;5084355;28;20219;-92
2023/03/11 06:52:23;;;;;;;2.03;1.33;;;4.90;99.90;;;;;;5084921;28;20215;-91
2023/03/11 06:54:55;;;;;;;1.00;0.97;;;4.90;99.90;;;;;;5081151;28;20214;-92
2023/03/11 06:57:29;;;;;;;1.97;1.30;;;4.90;99.90;;;;;;5074966;28;20207;-91
2023/03/11 07:00:01;;;;;;;2.53;1.60;;;4.90;99.90;;;;;;5073538;28;20203;-94
2023/03/11 07:02:35;;;;;;;2.93;1.60;;;4.90;99.90;;;;;;5080871;28;20204;-92
2023/03/11 07:05:08;;;;;;;4.80;1.60;;;4.90;99.90;;;;;;5074241;28;20269;-93
2023/03/11 07:07:41;;;;;;;1.63;1.40;;;4.90;99.90;;;;;;5071031;28;20234;-92
2023/03/11 07:10:14;;;;;;;3.00;1.80;;;4.90;99.90;;;;;;5060962;28;20203;-92
2023/03/11 07:12:46;;;;;;;1.50;1.37;;;4.90;99.90;;;;;;5073848;28;20204;-92
2023/03/11 07:15:18;;;;;;;2.23;1.50;;;4.90;99.90;;;;;;5076894;28;20200;-93
2023/03/11 07:17:53;;;;;;;1.30;1.20;;;4.90;99.90;;;;;;5075882;28;20261;-94
2023/03/11 07:20:25;;;;;;;3.17;1.67;;;4.90;99.90;;;;;;5074346;28;20203;-94
2023/03/11 07:22:58;;;;;;;1.77;1.47;;;4.90;99.90;;;;;;5073863;28;20223;-92
2023/03/11 07:25:32;;;;;;;4.57;1.60;;;4.90;99.90;;;;;;5083975;28;20217;-93
2023/03/11 07:28:03;;;;;;;3.37;1.23;;;5.00;99.90;;;;;;5087619;28;20213;-92
2023/03/11 07:30:35;;;;;;;2.23;1.13;;;5.00;99.90;;;;;;5086467;28;20546;-91
2023/03/11 07:33:09;;;;;;;1.73;1.60;;;5.00;99.90;;;;;;5083969;28;20262;-93
2023/03/11 07:35:41;;;;;;;2.67;1.47;;;5.00;99.90;;;;;;5092355;28;20743;-92
2023/03/11 07:38:13;;;;;;;2.40;1.27;;;5.00;99.90;;;;;;5074379;28;20207;-92
2023/03/11 07:40:45;;;;;;;1.20;1.10;;;4.90;99.90;;;;;;5082101;28;20208;-92
2023/03/11 07:43:17;;;;;;;1.47;1.37;;;4.90;99.90;;;;;;5077112;28;20227;-93
2023/03/11 07:45:50;;;;;;;1.30;1.20;;;4.80;99.90;;;;;;5076699;28;20231;-92
2023/03/11 07:48:23;;;;;;;1.90;1.30;;;4.80;99.90;;;;;;5073972;28;20238;-91
2023/03/11 07:51:03;;;;;;;3.13;1.70;;;4.80;99.90;;;;;;5067403;28;20216;-91
2023/03/11 07:53:36;;;;;;;1.90;1.50;;;4.80;99.90;;;;;;5071811;28;20203;-92
2023/03/11 07:56:10;;;;;;;2.23;1.27;;;4.90;99.90;;;;;;5090976;28;20218;-92
2023/03/11 07:58:41;;;;;;;2.33;1.20;;;5.00;99.90;;;;;;5094258;28;20298;-91
2023/03/11 08:01:17;;;;;;;1.10;1.00;;;5.00;99.90;;;;;;5089359;28;20200;-91
2023/03/11 08:03:55;;;;;;;1.73;1.00;;;5.00;99.90;;;;;;5073120;28;20222;-93
2023/03/11 08:06:30;;;;;;;4.07;1.77;;;5.00;99.90;;;;;;5072127;28;20204;-92
2023/03/11 08:09:03;;;;;;;1.70;1.27;;;5.00;99.90;;;;;;5074769;28;20203;-92
2023/03/11 08:11:35;;;;;;;2.27;0.93;;;5.00;99.90;;;;;;5084132;28;20650;-91
2023/03/11 08:14:07;;;;;;;3.27;1.07;;;5.10;99.90;;;;;;5078539;28;20254;-94
2023/03/11 08:16:40;;;;;;;1.60;0.90;;;5.10;99.90;;;;;;5082549;28;20642;-93
2023/03/11 08:19:16;;;;;;;2.10;1.13;;;5.10;99.90;;;;;;5092462;28;20296;-92
2023/03/11 08:21:48;;;;;;;1.67;0.83;;;5.20;99.90;;;;;;5093663;28;20207;-93
2023/03/11 08:24:20;;;;;;;4.43;1.10;;;5.10;99.90;;;;;;5086332;28;20234;-93
2023/03/11 08:26:51;;;;;;;2.80;1.10;;;5.10;99.90;;;;;;5082349;28;20274;-94
2023/03/11 08:29:23;;;;;;;2.77;0.90;;;5.00;99.90;;;;;;5085507;28;20199;-93
2023/03/11 08:31:55;;;;;;;2.77;1.03;;;5.00;99.90;;;;;;5100643;28;20210;-93
2023/03/11 08:34:29;;;;;;;2.20;0.93;;;5.00;99.90;;;;;;5095098;28;20215;-94
2023/03/11 08:37:01;;;;;;;2.00;1.07;;;5.00;99.90;;;;;;5079570;28;20220;-91
2023/03/11 08:39:33;;;;;;;1.20;1.07;;;5.00;99.90;;;;;;5074146;28;20283;-93
2023/03/11 08:42:05;;;;;;;1.63;0.80;;;5.10;99.90;;;;;;5067199;28;20278;-92
2023/03/11 08:44:40;;;;;;;0.97;0.90;;;5.10;99.90;;;;;;5076679;28;20231;-91
2023/03/11 08:47:14;;;;;;;0.80;0.80;;;5.10;99.90;;;;;;5090211;28;20641;-93
2023/03/11 08:49:48;;;;;;;2.17;1.37;;;5.10;99.90;;;;;;5088351;28;20204;-92
2023/03/11 08:52:20;;;;;;;1.73;0.90;;;5.10;99.90;;;;;;5077426;28;20265;-92
2023/03/11 08:54:51;;;;;;;1.70;1.17;;;5.10;99.90;;;;;;5077550;28;20204;-92
2023/03/11 08:57:23;;;;;;;4.30;1.20;;;5.10;99.90;;;;;;5084635;28;20230;-92
2023/03/11 08:59:57;;;;;;;2.37;0.90;;;5.10;99.90;;;;;;5098609;28;20202;-93
2023/03/11 09:02:30;;;;;;;2.67;1.20;;;5.10;99.90;;;;;;5096519;28;20622;-91
2023/03/11 09:05:05;;;;;;;2.30;1.10;;;5.10;99.90;;;;;;5064039;28;20227;-91
2023/03/11 09:07:37;;;;;;;1.70;0.80;;;5.10;99.90;;;;;;5063686;28;20672;-92
2023/03/11 09:10:10;;;;;;;1.93;1.13;;;5.10;99.90;;;;;;5076033;28;20490;-92
2023/03/11 09:12:41;;;;;;;2.97;1.00;;;5.10;99.90;;;;;;5077366;28;20265;-93
2023/03/11 09:15:13;;;;;;;2.93;1.20;;;5.10;99.90;;;;;;5077336;28;20771;-93
2023/03/11 09:17:45;;;;;;;2.77;1.30;;;5.10;99.90;;;;;;5071762;28;20247;-93
2023/03/11 09:20:20;;;;;;;2.47;1.10;;;5.00;99.90;;;;;;5077654;28;20204;-92
2023/03/11 09:22:51;;;;;;;1.73;0.90;;;5.00;99.90;;;;;;5073967;28;20204;-95
2023/03/11 09:25:23;;;;;;;1.53;1.10;;;5.10;99.90;;;;;;5078155;28;20231;-93
2023/03/11 09:27:54;;;;;;;3.27;1.00;;;5.00;99.90;;;;;;5079449;28;20261;-91
2023/03/11 09:30:26;;;;;;;2.30;1.00;;;5.00;99.90;;;;;;5085387;28;20211;-93
2023/03/11 09:32:58;;;;;;;2.03;1.00;;;5.00;99.90;;;;;;5079399;28;20220;-92
2023/03/11 09:35:31;;;;;;;2.23;0.97;;;5.00;99.90;;;;;;5077459;28;20611;-92
2023/03/11 09:38:03;;;;;;;2.50;1.30;;;4.90;99.90;;;;;;5097875;28;20212;-92
2023/03/11 09:40:58;;;;;;;1.30;0.70;;;4.80;99.90;;;;;;5097369;28;20203;-93
2023/03/11 09:43:44;;;;;;;1.97;1.00;;;4.80;99.90;;;;;;5063169;28;20212;-93
2023/03/11 09:46:41;;;;;;;2.50;0.90;;;4.70;99.90;;;;;;5057877;28;20276;-92
2023/03/11 09:49:21;;;;;;;1.53;0.60;;;4.70;99.90;;;;;;5059941;28;20276;-92
2023/03/11 09:52:03;;;;;;;2.10;0.77;;;4.60;99.90;;;;;;5079665;28;20324;-92
2023/03/11 09:54:40;;;;;;;2.67;0.83;;;4.60;99.90;;;;;;5096905;28;20560;-92
2023/03/11 09:57:17;;;;;;;2.03;0.80;;;4.60;99.90;;;;;;5097079;28;20210;-92
2023/03/11 09:59:49;;;;;;;2.17;0.70;;;4.60;99.90;;;;;;5092070;28;20211;-91
2023/03/11 10:02:25;;;;;;;2.70;0.93;;;4.60;99.90;;;;;;5098264;28;20229;-92
2023/03/11 10:05:00;;;;;;;2.03;0.60;;;4.60;99.90;;;;;;5096793;28;20237;-92
2023/03/11 10:07:40;;;;;;;4.53;1.03;;;4.50;99.90;;;;;;5082001;28;20210;-91
2023/03/11 10:10:15;;;;;;;1.53;0.87;;;4.60;99.90;;;;;;5078992;28;20273;-92
2023/03/11 10:12:56;;;;;;;1.97;0.80;;;4.60;99.90;;;;;;5076456;28;20562;-90
2023/03/11 10:15:47;;;;;;;2.60;0.90;;;4.70;99.90;;;;;;5075712;28;20261;-92
2023/03/11 10:18:44;;;;;;;2.10;0.90;;;4.70;99.90;;;;;;5075126;28;20210;-92
2023/03/11 10:21:25;;;;;;;2.50;0.90;;;4.80;99.90;;;;;;5074636;28;20233;-93
2023/03/11 10:24:13;;;;;;;5.10;1.40;;;4.90;99.90;;;;;;5080476;28;20207;-91
2023/03/11 10:26:48;;;;;;;3.50;1.20;;;4.90;99.90;;;;;;5095843;28;20742;-92
2023/03/11 10:29:25;;;;;;;5.00;1.00;;;4.90;99.90;;;;;;5054245;28;20211;-91
2023/03/11 10:32:03;;;;;;;3.30;1.20;;;5.00;99.90;;;;;;5055072;28;20260;-92
2023/03/11 10:34:39;;;;;;;3.67;1.30;;;4.90;99.90;;;;;;5054098;28;20219;-92
2023/03/11 10:37:17;;;;;;;4.67;1.00;;;4.80;99.90;;;;;;5057788;28;20212;-92
2023/03/11 10:39:52;;;;;;;2.80;0.90;;;4.70;99.90;;;;;;5076365;28;20619;-91
2023/03/11 10:42:28;;;;;;;3.80;0.93;;;4.50;99.90;;;;;;5076745;28;20605;-92
2023/03/11 10:45:00;;;;;;;2.90;0.80;;;4.40;99.90;;;;;;5055499;28;20330;-92
2023/03/11 10:47:31;;;;;;;1.40;0.73;;;4.30;99.90;;;;;;5059442;28;20601;-92
2023/03/11 10:50:03;;;;;;;2.57;0.77;;;4.30;99.90;;;;;;5066611;28;20212;-91
2023/03/11 10:52:45;;;;;;;1.90;0.80;;;4.30;99.90;;;;;;5057041;28;20307;-93
2023/03/11 10:55:20;;;;;;;2.00;0.90;;;4.30;99.90;;;;;;5074923;28;20214;-92
2023/03/11 10:57:52;;;;;;;2.13;1.03;;;4.30;99.90;;;;;;5070170;28;20253;-91
2023/03/11 11:00:31;;;;;;;1.90;0.90;;;4.30;99.90;;;;;;5070998;28;20223;-92
2023/03/11 11:03:05;;;;;;;2.37;1.17;;;4.30;99.90;;;;;;5074352;28;20242;-92
2023/03/11 11:05:39;;;;;;;2.70;1.20;;;4.30;99.90;;;;;;5081115;28;20245;-91
2023/03/11 11:08:15;;;;;;;1.70;1.00;;;4.20;99.90;;;;;;5074688;28;20208;-91
2023/03/11 11:11:04;;;;;;;2.13;1.20;;;4.20;99.90;;;;;;5074675;28;20219;-90
2023/03/11 11:13:36;;;;;;;1.53;0.90;;;4.20;99.90;;;;;;5111602;28;20654;-92
2023/03/11 11:16:20;;;;;;;3.03;0.93;;;4.20;99.90;;;;;;5078569;28;20212;-92
2023/03/11 11:18:56;;;;;;;1.30;1.00;;;4.20;99.90;;;;;;5076229;28;20704;-92
2023/03/11 11:21:34;;;;;;;4.47;1.40;;;4.20;99.90;;;;;;5074802;28;20684;-94
2023/03/11 11:24:17;;;;;;;5.20;0.97;;;4.20;99.90;;;;;;5076463;28;20305;-92
2023/03/11 11:27:16;;;;;;;3.90;1.00;;;4.10;99.90;;;;;;5076365;28;20701;-92
2023/03/11 11:29:49;;;;;;;1.57;1.00;;;4.10;99.90;;;;;;5075804;28;20214;-92
2023/03/11 11:32:26;;;;;;;3.53;1.00;;;4.10;99.90;;;;;;5108422;28;20258;-93
2023/03/11 11:35:06;;;;;;;3.53;1.33;;;4.10;99.90;;;;;;5076923;28;20230;-92
2023/03/11 11:37:40;;;;;;;4.13;1.27;;;4.10;99.90;;;;;;5057121;28;20212;-91
2023/03/11 11:40:28;;;;;;;3.87;1.30;;;4.10;99.90;;;;;;5058110;28;20602;-92
2023/03/11 11:43:07;;;;;;;6.50;1.57;;;4.10;99.90;;;;;;5061955;28;20285;-93
2023/03/11 11:45:43;;;;;;;3.77;1.93;;;4.00;99.90;;;;;;5076762;28;20705;-92
2023/03/11 11:48:20;;;;;;;2.43;1.30;;;4.00;99.90;;;;;;5062877;28;20200;-94
2023/03/11 11:50:55;;;;;;;5.40;1.17;;;4.00;99.90;;;;;;5059753;28;20257;-92
2023/03/11 11:53:36;;;;;;;2.57;1.30;;;4.00;99.90;;;;;;5057323;28;20206;-93
2023/03/11 11:56:09;;;;;;;5.00;1.40;;;4.00;99.90;;;;;;5073706;28;20214;-91
2023/03/11 11:58:43;;;;;;;3.90;1.20;;;3.90;99.90;;;;;;5078521;28;20204;-91
2023/03/11 12:01:20;;;;;;;4.97;1.60;;;3.90;99.90;;;;;;5078582;28;20245;-90
2023/03/11 12:04:19;;;;;;;4.07;1.50;;;3.80;99.90;;;;;;5086877;28;20219;-90
2023/03/11 12:07:01;;;;;;;3.43;1.27;;;3.80;99.90;;;;;;5095985;28;20224;-92
2023/03/11 12:09:37;;;;;;;6.43;1.60;;;3.80;99.90;;;;;;5073634;28;20269;-91
2023/03/11 12:12:17;;;;;;;3.40;1.40;;;3.70;99.90;;;;;;5061021;28;20688;-89
2023/03/11 12:14:58;;;;;;;3.33;1.40;;;3.70;99.90;;;;;;5078359;28;20199;-90
2023/03/11 12:17:33;;;;;;;3.33;1.30;;;3.70;99.90;;;;;;5076093;28;20575;-90
2023/03/11 12:20:13;;;;;;;2.17;1.20;;;3.70;99.90;;;;;;5074878;28;20211;-90
2023/03/11 12:23:05;;;;;;;4.73;1.50;;;3.60;99.90;;;;;;5067303;28;20709;-90
2023/03/11 12:25:41;;;;;;;4.37;1.10;;;3.60;99.90;;;;;;5076534;28;20220;-89
2023/03/11 12:28:21;;;;;;;4.93;1.63;;;3.60;99.90;;;;;;5077401;28;20219;-93
2023/03/11 12:30:59;;;;;;;3.67;1.47;;;3.60;99.90;;;;;;5078213;28;20204;-92
2023/03/11 12:33:37;;;;;;;3.87;1.37;;;3.70;99.90;;;;;;5080077;28;20564;-92
2023/03/11 12:36:22;;;;;;;1.63;1.13;;;3.80;99.90;;;;;;5101441;28;20232;-92
2023/03/11 12:38:56;;;;;;;3.07;1.10;;;3.80;99.90;;;;;;5086445;28;20343;-92
2023/03/11 12:41:38;;;;;;;2.47;1.27;;;3.80;99.90;;;;;;5078704;28;20199;-93
2023/03/11 12:44:27;;;;;;;3.90;1.33;;;3.90;99.90;;;;;;5076405;28;20207;-91
2023/03/11 12:47:22;;;;;;;8.03;1.73;;;3.90;99.90;;;;;;5086866;28;20227;-91
2023/03/11 12:49:56;;;;;;;5.23;1.47;;;3.80;99.90;;;;;;5075409;28;20211;-92
2023/03/11 12:52:29;;;;;;;4.03;1.27;;;3.90;99.90;;;;;;5077136;28;20273;-93
2023/03/11 12:55:30;;;;;;;5.90;1.33;;;3.90;99.90;;;;;;5077838;28;20576;-92
2023/03/11 12:58:25;;;;;;;3.53;1.10;;;3.90;99.90;;;;;;5074425;28;20214;-93
2023/03/11 13:01:15;;;;;;;2.53;1.10;;;3.90;99.90;;;;;;5076001;28;20203;-90
2023/03/11 13:04:06;;;;;;;5.53;1.10;;;3.90;99.90;;;;;;5076711;28;20615;-90
2023/03/11 13:07:04;;;;;;;5.63;1.10;;;3.90;99.90;;;;;;5087661;28;20276;-91
2023/03/11 13:09:35;;;;;;;3.00;1.30;;;3.90;99.90;;;;;;5074581;28;20268;-92
2023/03/11 13:12:40;;;;;;;4.87;1.37;;;3.90;99.90;;;;;;5077105;28;20657;-91
2023/03/11 13:15:32;;;;;;;3.20;0.90;;;3.90;99.90;;;;;;5060984;28;20661;-91
2023/03/11 13:18:06;;;;;;;3.30;1.10;;;3.90;99.90;;;;;;5067027;28;20259;-91
2023/03/11 13:21:01;;;;;;;2.20;1.07;;;3.90;99.90;;;;;;5076518;28;20211;-90
2023/03/11 13:23:35;;;;;;;5.67;1.60;;;4.00;99.90;;;;;;5076748;28;20207;-91
2023/03/11 13:26:23;;;;;;;2.93;1.00;;;4.00;99.90;;;;;;5075193;28;20246;-90
2023/03/11 13:29:12;;;;;;;7.67;1.30;;;4.00;99.90;;;;;;5085165;28;20199;-91
2023/03/11 13:32:00;;;;;;;4.97;1.20;;;4.00;99.90;;;;;;5076607;28;20649;-92
2023/03/11 13:34:44;;;;;;;4.23;1.27;;;4.00;99.90;;;;;;5056013;28;20244;-91
2023/03/11 13:37:28;;;;;;;3.10;1.00;;;4.00;99.90;;;;;;5055458;28;20219;-92